Time;durP1;ratioP1;P1;durP2;ratioP2;P2;SDS_P1;SDS_P2;PMS_P1;PMS_P2;Temp;Humidity;BMP_temperature;BMP_pressure;BME280_temperature;BME280_humidity;BME280_pressure;Samples;Min_cycle;Max_cycle;Signal;HPM_P1;HPM_P2
2023/02/11 10:56:25;;;;;;;29.33;22.80;;;;;;;7.06;100.00;103571.59;5091736;27;20388;-35
2023/02/11 10:59:00;;;;;;;30.27;22.00;;;;;;;7.09;100.00;103559.72;5091394;28;20082;-35
2023/02/11 11:01:42;;;;;;;29.20;22.55;;;;;;;7.14;100.00;103562.84;5091051;28;20029;-35
2023/02/11 11:04:29;;;;;;;30.70;21.88;;;;;;;7.22;100.00;103571.91;5091873;28;20103;-35
2023/02/11 11:06:56;;;;;;;30.63;23.08;;;;;;;7.26;100.00;103579.69;5090983;28;20455;-35
2023/02/11 11:09:29;;;;;;;30.90;22.65;;;;;;;7.24;100.00;103558.31;5090958;28;20039;-35
2023/02/11 11:11:55;;;;;;;28.92;22.45;;;;;;;7.24;100.00;103552.91;5091132;28;20024;-35
2023/02/11 11:14:27;;;;;;;33.13;22.20;;;;;;;7.37;100.00;103574.13;5091135;28;20090;-35
2023/02/11 11:16:54;;;;;;;29.38;21.83;;;;;;;7.34;100.00;103561.84;5091083;28;20089;-35
2023/02/11 11:19:22;;;;;;;24.30;21.42;;;;;;;7.45;100.00;103575.13;5090537;28;20027;-35
2023/02/11 11:21:50;;;;;;;26.95;21.92;;;;;;;7.47;100.00;103577.69;5090980;28;20028;-36
2023/02/11 11:24:20;;;;;;;27.13;20.58;;;;;;;7.50;100.00;103582.78;5090988;28;20036;-35
2023/02/11 11:26:48;;;;;;;27.75;21.25;;;;;;;7.50;100.00;103580.09;5090627;28;20025;-35
2023/02/11 11:29:29;;;;;;;31.02;21.30;;;;;;;7.54;100.00;103575.25;5090876;28;20025;-35
2023/02/11 11:32:00;;;;;;;26.77;21.00;;;;;;;7.52;100.00;103575.41;5091040;28;20046;-35
2023/02/11 11:34:32;;;;;;;28.15;22.10;;;;;;;7.44;100.00;103562.66;5090110;28;20029;-35
2023/02/11 11:37:00;;;;;;;26.80;21.00;;;;;;;7.56;100.00;103578.66;5091029;28;20032;-35
2023/02/11 11:39:31;;;;;;;28.58;20.45;;;;;;;7.57;100.00;103583.06;5090921;28;20125;-35
2023/02/11 11:42:04;;;;;;;23.05;19.77;;;;;;;7.58;100.00;103577.53;5089408;28;20028;-35
2023/02/11 11:44:32;;;;;;;26.23;20.30;;;;;;;7.68;100.00;103596.38;5088789;28;20044;-35
2023/02/11 11:47:06;;;;;;;25.75;21.48;;;;;;;7.69;100.00;103588.13;5090203;28;20426;-35
2023/02/11 11:49:57;;;;;;;24.65;20.17;;;;;;;7.64;100.00;103576.09;5090527;28;20033;-35
2023/02/11 11:52:31;;;;;;;24.00;18.58;;;;;;;7.65;100.00;103567.88;5048793;28;20060;-35
2023/02/11 11:55:11;;;;;;;25.92;20.60;;;;;;;7.70;100.00;103575.50;5089739;28;20048;-35
2023/02/11 11:57:39;;;;;;;26.75;20.83;;;;;;;7.70;100.00;103578.19;5090792;28;20107;-35
2023/02/11 12:00:14;;;;;;;24.23;19.48;;;;;;;7.65;100.00;103567.00;5090348;28;20029;-36
2023/02/11 12:02:49;;;;;;;24.80;19.27;;;;;;;7.73;100.00;103580.63;5090127;28;20459;-36
2023/02/11 12:05:26;;;;;;;29.02;20.33;;;;;;;7.78;100.00;103574.78;5088199;28;20435;-36
2023/02/11 12:08:03;;;;;;;24.17;19.55;;;;;;;7.74;100.00;103564.28;5076949;28;20028;-36
2023/02/11 12:11:04;;;;;;;28.70;19.75;;;;;;;7.84;100.00;103572.34;5076836;28;20032;-36
2023/02/11 12:13:41;;;;;;;25.85;19.20;;;;;;;7.87;100.00;103563.13;5058364;28;20032;-36
2023/02/11 12:16:12;;;;;;;25.15;20.52;;;;;;;7.85;100.00;103565.13;5076538;28;20025;-36
2023/02/11 12:19:10;;;;;;;26.98;19.73;;;;;;;7.92;100.00;103560.84;5076153;28;20032;-36
2023/02/11 12:21:59;;;;;;;23.52;19.00;;;;;;;7.95;100.00;103556.03;5076075;28;20033;-36
2023/02/11 12:24:51;;;;;;;26.58;20.30;;;;;;;7.97;100.00;103548.63;5076565;28;20028;-36
2023/02/11 12:27:36;;;;;;;26.30;20.20;;;;;;;8.01;100.00;103549.19;5076589;28;20167;-36
2023/02/11 12:30:23;;;;;;;23.90;19.95;;;;;;;8.02;100.00;103541.97;5035296;28;20396;-36
2023/02/11 12:33:04;;;;;;;25.77;20.83;;;;;;;8.04;100.00;103543.50;5075909;28;20044;-36
2023/02/11 12:35:39;;;;;;;24.35;19.65;;;;;;;8.06;100.00;103540.66;5076385;28;20460;-36
2023/02/11 12:38:20;;;;;;;24.10;19.70;;;;;;;8.18;100.00;103539.47;5076125;28;20537;-36
2023/02/11 12:41:13;;;;;;;25.58;20.15;;;;;;;8.30;100.00;103542.81;5075726;28;20419;-36
2023/02/11 12:43:42;;;;;;;23.52;19.33;;;;;;;8.37;100.00;103541.25;5075992;28;20493;-36
2023/02/11 12:46:19;;;;;;;25.00;19.67;;;;;;;8.40;100.00;103536.41;5075687;28;20024;-36
2023/02/11 12:49:00;;;;;;;27.70;19.90;;;;;;;8.40;100.00;103525.63;5075610;28;20028;-36
2023/02/11 12:51:34;;;;;;;23.10;18.90;;;;;;;8.52;100.00;103521.69;5075857;28;20418;-37
2023/02/11 12:54:30;;;;;;;21.42;18.40;;;;;;;8.59;100.00;103521.06;5075503;28;20032;-37
2023/02/11 12:57:05;;;;;;;23.92;18.15;;;;;;;8.64;100.00;103527.72;5075514;28;20044;-36
2023/02/11 13:00:05;;;;;;;26.13;17.13;;;;;;;8.68;100.00;103530.94;5076191;28;20040;-37
2023/02/11 13:02:55;;;;;;;20.25;16.95;;;;;;;8.72;100.00;103538.59;5075336;28;20035;-38
2023/02/11 13:05:48;;;;;;;22.42;17.55;;;;;;;8.72;100.00;103526.94;5075070;28;20032;-38
2023/02/11 13:08:15;;;;;;;21.90;17.27;;;;;;;8.67;100.00;103529.25;5076062;28;20107;-38
2023/02/11 13:10:44;;;;;;;21.15;17.20;;;;;;;8.63;100.00;103536.81;5075648;28;20024;-38
2023/02/11 13:13:27;;;;;;;21.05;17.55;;;;;;;8.62;100.00;103532.41;5074261;28;20115;-38
2023/02/11 13:16:04;;;;;;;21.42;17.02;;;;;;;8.55;100.00;103536.72;5075042;28;20459;-38
2023/02/11 13:18:47;;;;;;;24.70;17.52;;;;;;;8.51;100.00;103536.19;5073886;28;20027;-38
2023/02/11 13:21:15;;;;;;;23.33;17.55;;;;;;;8.46;100.00;103540.34;5074768;28;20024;-38
2023/02/11 13:23:56;;;;;;;22.90;17.45;;;;;;;8.45;100.00;103536.78;5074713;28;20033;-38
2023/02/11 13:26:40;;;;;;;21.98;16.48;;;;;;;8.46;100.00;103533.09;5075943;28;20487;-38
2023/02/11 13:29:37;;;;;;;22.63;16.73;;;;;;;8.47;100.00;103525.84;5074037;28;20028;-38
2023/02/11 13:32:11;;;;;;;22.65;17.45;;;;;;;8.49;100.00;103535.50;5074812;28;20020;-38
2023/02/11 13:34:42;;;;;;;20.58;15.55;;;;;;;8.54;100.00;103531.47;5074821;28;20059;-38
2023/02/11 13:37:27;;;;;;;20.35;16.35;;;;;;;8.58;100.00;103533.72;5074654;28;20020;-38
2023/02/11 13:40:06;;;;;;;21.10;16.45;;;;;;;8.64;100.00;103534.97;5073724;28;20024;-38
2023/02/11 13:42:46;;;;;;;19.60;16.35;;;;;;;8.67;100.00;103523.88;5074261;28;20028;-38
2023/02/11 13:45:32;;;;;;;18.63;15.65;;;;;;;8.76;100.00;103531.88;5074485;28;20028;-38
2023/02/11 13:48:00;;;;;;;23.58;17.90;;;;;;;8.80;100.00;103532.44;5074158;28;20024;-38
2023/02/11 13:50:26;;;;;;;20.85;16.40;;;;;;;8.77;100.00;103511.16;5074205;28;20028;-38
2023/02/11 13:53:02;;;;;;;21.20;15.63;;;;;;;8.85;100.00;103516.63;5074536;28;20028;-38
2023/02/11 13:55:29;;;;;;;21.08;16.67;;;;;;;8.85;100.00;103496.91;5074677;28;20387;-38
2023/02/11 13:58:26;;;;;;;21.70;15.18;;;;;;;8.96;100.00;103519.09;5073988;28;20103;-38
2023/02/11 14:00:51;;;;;;;18.80;15.38;;;;;;;8.97;100.00;103528.03;5046585;28;20438;-38
2023/02/11 14:09:08;;;;;;;19.23;15.48;;;;;;;9.05;100.00;103538.06;5073798;28;20059;-38
2023/02/11 14:11:39;;;;;;;19.65;15.32;;;;;;;9.03;100.00;103533.69;5054752;28;20029;-38
2023/02/11 14:14:18;;;;;;;20.85;14.00;;;;;;;9.03;100.00;103538.22;5054735;28;20029;-38
2023/02/11 14:17:01;;;;;;;18.98;15.55;;;;;;;9.06;100.00;103539.75;5053786;28;20029;-38
2023/02/11 14:19:34;;;;;;;16.73;14.65;;;;;;;9.00;100.00;103539.38;5054242;28;20033;-38
2023/02/11 14:22:12;;;;;;;19.83;16.13;;;;;;;9.02;100.00;103540.03;5053574;28;20067;-38
2023/02/11 14:24:37;;;;;;;18.60;15.13;;;;;;;9.03;100.00;103535.53;5054128;28;20037;-39
2023/02/11 14:27:09;;;;;;;19.53;14.83;;;;;;;9.02;100.00;103523.84;5054193;28;20039;-38
2023/02/11 14:29:52;;;;;;;16.25;14.10;;;;;;;9.01;100.00;103530.25;5053697;28;20419;-38
2023/02/11 14:32:54;;;;;;;19.77;15.38;;;;;;;9.04;100.00;103531.81;5053747;28;20032;-38
2023/02/11 14:35:38;;;;;;;16.63;14.00;;;;;;;9.05;100.00;103529.97;5053306;28;20476;-38
2023/02/11 14:38:17;;;;;;;19.05;15.68;;;;;;;8.99;100.00;103524.19;5053824;28;20152;-38
2023/02/11 14:41:09;;;;;;;22.40;15.82;;;;;;;9.03;100.00;103527.44;5053959;28;20036;-38
2023/02/11 14:43:39;;;;;;;21.20;16.65;;;;;;;9.04;100.00;103539.91;5061530;28;20028;-38
2023/02/11 14:46:05;;;;;;;19.70;15.80;;;;;;;9.05;100.00;103529.97;5073590;28;20025;-38
2023/02/11 14:48:36;;;;;;;17.45;14.85;;;;;;;9.06;100.00;103534.34;5074389;28;20190;-38
2023/02/11 14:51:18;;;;;;;16.15;14.05;;;;;;;9.03;100.00;103536.38;5073869;28;20056;-38
2023/02/11 14:53:47;;;;;;;17.92;14.52;;;;;;;9.03;100.00;103543.63;5074141;28;20029;-38
2023/02/11 14:56:20;;;;;;;16.92;14.20;;;;;;;9.03;100.00;103546.31;5073662;28;20056;-38
2023/02/11 14:58:50;;;;;;;18.63;15.18;;;;;;;9.00;100.00;103547.47;5073672;28;20036;-38
2023/02/11 15:01:33;;;;;;;16.92;14.70;;;;;;;8.99;100.00;103540.38;5073083;28;20033;-38
2023/02/11 15:04:00;;;;;;;20.70;14.65;;;;;;;9.01;100.00;103549.16;5073341;28;20033;-38
2023/02/11 15:06:27;;;;;;;;;;;;;;;9.06;100.00;103551.41;5074394;28;20036;-38
2023/02/11 15:09:03;;;;;;;16.30;13.73;;;;;;;8.98;100.00;103544.09;5073327;28;19920;-38
2023/02/11 15:11:34;;;;;;;16.92;14.30;;;;;;;8.95;100.00;103552.47;5074159;28;20031;-38
2023/02/11 15:14:07;;;;;;;15.98;14.00;;;;;;;8.96;100.00;103559.56;5073483;28;20093;-38
2023/02/11 15:16:33;;;;;;;20.17;15.18;;;;;;;8.95;100.00;103565.97;5073232;28;20036;-38
2023/02/11 15:19:03;;;;;;;17.63;14.82;;;;;;;8.92;100.00;103555.47;5072863;28;20570;-38
2023/02/11 15:21:31;;;;;;;17.40;14.88;;;;;;;8.90;100.00;103556.66;5073160;28;20033;-37
2023/02/11 15:24:00;;;;;;;18.60;14.57;;;;;;;8.87;100.00;103562.34;5073163;28;20025;-37
2023/02/11 15:26:25;;;;;;;17.33;14.80;;;;;;;8.85;100.00;103569.75;5073258;28;20036;-38
2023/02/11 15:28:51;;;;;;;15.85;14.02;;;;;;;8.84;100.00;103563.50;5073087;28;20037;-38
2023/02/11 15:31:19;;;;;;;18.52;14.45;;;;;;;8.82;100.00;103570.91;5073378;28;20111;-38
2023/02/11 15:33:45;;;;;;;17.88;14.27;;;;;;;8.80;100.00;103575.59;5072971;28;20032;-38
2023/02/11 15:36:13;;;;;;;18.60;15.05;;;;;;;8.80;100.00;103577.47;5073549;28;20372;-38
2023/02/11 15:38:39;;;;;;;17.15;14.20;;;;;;;8.78;100.00;103574.88;5072464;28;20426;-38
2023/02/11 15:41:06;;;;;;;;;;;;;;;8.81;100.00;103580.00;5074197;28;20033;-37
2023/02/11 15:43:51;;;;;;;17.08;14.13;;;;;;;8.75;100.00;103573.38;5076442;28;20447;-37
2023/02/11 15:46:22;;;;;;;18.40;14.65;;;;;;;8.72;100.00;103570.13;5076915;28;20353;-38
2023/02/11 15:48:52;;;;;;;16.63;14.50;;;;;;;8.61;100.00;103563.09;5076308;28;20056;-38
2023/02/11 15:51:19;;;;;;;16.27;14.15;;;;;;;8.69;100.00;103573.97;5076366;28;20111;-38
2023/02/11 15:53:51;;;;;;;18.55;14.52;;;;;;;8.61;100.00;103563.09;5075950;28;20407;-38
2023/02/11 15:56:25;;;;;;;17.02;14.38;;;;;;;8.66;100.00;103576.13;5075888;28;20052;-38
2023/02/11 15:58:54;;;;;;;19.08;14.57;;;;;;;8.52;100.00;103559.44;5076804;28;20036;-38
2023/02/11 16:01:28;;;;;;;21.98;16.75;;;;;;;8.58;100.00;103573.31;5077020;28;20372;-38
2023/02/11 16:03:54;;;;;;;20.80;16.95;;;;;;;8.61;100.00;103573.88;5076365;28;20028;-38
2023/02/11 16:06:28;;;;;;;21.13;17.23;;;;;;;8.60;100.00;103577.59;5076487;28;20047;-38
2023/02/11 16:09:01;;;;;;;21.42;16.13;;;;;;;8.60;100.00;103576.75;5075995;28;20503;-38
2023/02/11 16:13:05;;;;;;;18.50;15.30;;;;;;;8.57;100.00;103583.28;5111441;27;1257369;-36
2023/02/11 16:15:33;;;;;;;19.67;13.17;;;;;;;8.58;100.00;103579.56;5132032;28;20039;-37
2023/02/11 16:18:01;;;;;;;19.45;14.50;;;;;;;8.51;100.00;103570.41;5131401;27;20043;-37
2023/02/11 16:20:26;;;;;;;17.02;15.10;;;;;;;8.56;100.00;103586.13;5132473;27;20139;-37
2023/02/11 16:22:52;;;;;;;16.33;14.25;;;;;;;8.47;100.00;103564.44;5131923;27;20495;-37
2023/02/11 16:25:20;;;;;;;19.75;14.15;;;;;;;8.46;100.00;103573.53;5132660;27;20024;-37
2023/02/11 16:27:51;;;;;;;21.67;16.30;;;;;;;8.45;100.00;103565.63;5131239;27;20027;-37
2023/02/11 16:30:33;;;;;;;20.42;15.63;;;;;;;8.48;100.00;103568.84;5131944;27;20047;-37
2023/02/11 16:32:59;;;;;;;19.23;14.27;;;;;;;8.41;100.00;103558.81;5111108;28;20036;-37
2023/02/11 16:35:24;;;;;;;17.40;14.32;;;;;;;8.43;100.00;103570.28;5111728;28;20020;-37
2023/02/11 16:37:50;;;;;;;18.10;14.87;;;;;;;8.42;100.00;103577.53;5110843;28;20111;-37
2023/02/11 16:40:15;;;;;;;16.10;14.43;;;;;;;8.40;100.00;103582.25;5111359;28;20027;-37
2023/02/11 16:42:41;;;;;;;18.85;14.77;;;;;;;8.29;100.00;103571.59;5111241;28;20107;-37
2023/02/11 16:45:06;;;;;;;17.80;14.73;;;;;;;8.38;100.00;103602.25;5110924;28;20035;-37
2023/02/11 16:47:33;;;;;;;18.95;14.57;;;;;;;8.36;100.00;103594.31;5110499;28;20076;-37
2023/02/11 16:49:59;;;;;;;19.33;14.48;;;;;;;8.34;100.00;103592.72;5110796;28;20024;-37
2023/02/11 16:52:25;;;;;;;19.40;14.85;;;;;;;8.32;100.00;103584.78;5111231;28;20035;-37
2023/02/11 16:54:50;;;;;;;21.05;14.90;;;;;;;8.33;100.00;103596.44;5110996;28;20375;-37
2023/02/11 16:57:21;;;;;;;18.40;14.40;;;;;;;8.25;100.00;103589.94;5110343;28;20101;-37
2023/02/11 16:59:48;;;;;;;21.45;15.77;;;;;;;8.28;100.00;103591.47;5110333;28;20031;-37
2023/02/11 17:02:15;;;;;;;18.65;15.40;;;;;;;8.27;100.00;103589.78;5110294;28;20032;-37
2023/02/11 17:04:40;;;;;;;17.70;15.73;;;;;;;8.26;100.00;103596.19;5110637;28;20034;-37
2023/02/11 17:07:06;;;;;;;20.45;16.58;;;;;;;8.18;100.00;103594.22;5110756;28;20421;-37
2023/02/11 17:09:32;;;;;;;18.92;15.93;;;;;;;8.23;100.00;103601.84;5110073;28;20032;-37
2023/02/11 17:11:57;;;;;;;23.45;16.85;;;;;;;8.20;100.00;103602.19;5110359;28;20047;-37
2023/02/11 17:14:23;;;;;;;20.25;15.77;;;;;;;8.19;100.00;103605.84;5110972;28;20040;-37
2023/02/11 17:16:48;;;;;;;21.13;14.98;;;;;;;8.17;100.00;103605.16;5110578;28;20396;-38
2023/02/11 17:19:16;;;;;;;22.57;15.57;;;;;;;8.18;100.00;103604.16;5110323;28;20070;-37
2023/02/11 17:21:43;;;;;;;22.20;15.75;;;;;;;8.16;100.00;103612.41;5109885;28;20035;-37
2023/02/11 17:24:08;;;;;;;24.02;16.02;;;;;;;8.15;100.00;103621.47;5098400;28;20403;-37
2023/02/11 17:26:35;;;;;;;20.40;14.50;;;;;;;8.16;100.00;103614.25;5097090;28;20057;-38
2023/02/11 17:29:03;;;;;;;19.40;15.40;;;;;;;8.14;100.00;103621.59;5096827;28;20035;-37
2023/02/11 17:31:28;;;;;;;20.00;15.20;;;;;;;8.13;100.00;103607.28;5096046;28;20055;-38
2023/02/11 17:33:54;;;;;;;19.57;15.60;;;;;;;8.13;100.00;103623.47;5096792;28;20047;-38
2023/02/11 17:36:19;;;;;;;22.35;16.27;;;;;;;8.11;100.00;103625.47;5097233;28;20028;-38
2023/02/11 17:38:45;;;;;;;19.93;15.33;;;;;;;8.08;100.00;103625.75;5095055;28;20024;-38
2023/02/11 17:41:11;;;;;;;17.03;15.20;;;;;;;8.11;100.00;103635.41;5096842;28;20039;-37
2023/02/11 17:43:36;;;;;;;21.98;15.85;;;;;;;8.05;100.00;103635.97;5096703;28;20386;-37
2023/02/11 17:46:05;;;;;;;21.60;15.73;;;;;;;8.05;100.00;103646.75;5097063;28;20123;-38
2023/02/11 17:48:30;;;;;;;20.02;16.23;;;;;;;8.04;100.00;103650.44;5096334;28;20032;-38
2023/02/11 17:50:55;;;;;;;23.17;16.17;;;;;;;7.98;100.00;103641.09;5096627;28;20051;-37
2023/02/11 17:53:21;;;;;;;19.73;15.37;;;;;;;8.03;100.00;103654.13;5095814;28;20270;-37
2023/02/11 17:55:46;;;;;;;24.50;17.33;;;;;;;8.02;100.00;103649.75;5096010;28;20420;-37
2023/02/11 17:58:11;;;;;;;19.43;16.10;;;;;;;8.01;100.00;103657.00;5095998;28;20027;-37
2023/02/11 18:00:37;;;;;;;19.20;16.53;;;;;;;7.93;100.00;103646.06;5104040;27;20300;-37
2023/02/11 18:03:02;;;;;;;21.77;16.53;;;;;;;7.97;100.00;103651.03;5116747;28;20034;-37
2023/02/11 18:05:35;;;;;;;19.27;14.83;;;;;;;7.93;100.00;103648.78;5116282;28;20732;-37
2023/02/11 18:08:01;;;;;;;25.13;18.08;;;;;;;8.00;100.00;103660.66;5116171;28;20459;-37
2023/02/11 18:10:26;;;;;;;20.80;16.25;;;;;;;7.96;100.00;103652.03;5116208;28;20106;-37
2023/02/11 18:12:52;;;;;;;24.77;15.97;;;;;;;7.87;100.00;103646.66;5116422;28;20456;-37
2023/02/11 18:15:17;;;;;;;17.77;14.40;;;;;;;7.97;100.00;103672.59;5115704;28;20019;-37
2023/02/11 18:17:43;;;;;;;17.87;15.07;;;;;;;7.97;100.00;103672.59;5116482;28;20028;-37
2023/02/11 18:20:08;;;;;;;20.43;15.03;;;;;;;7.97;100.00;103675.28;5116738;28;20028;-37
2023/02/11 18:22:38;;;;;;;20.08;15.35;;;;;;;7.95;100.00;103679.97;5115580;28;20038;-37
2023/02/11 18:25:05;;;;;;;19.85;15.05;;;;;;;7.94;100.00;103672.88;5116438;28;20034;-37
2023/02/11 18:27:30;;;;;;;17.33;14.63;;;;;;;7.92;100.00;103672.16;5115430;28;20024;-37
2023/02/11 18:29:55;;;;;;;17.87;15.00;;;;;;;7.89;100.00;103675.13;5115651;27;20103;-37
2023/02/11 18:32:21;;;;;;;17.07;14.10;;;;;;;7.89;100.00;103680.53;5115120;27;20032;-37
2023/02/11 18:34:46;;;;;;;18.23;14.53;;;;;;;7.83;100.00;103675.72;5114295;28;20024;-37
2023/02/11 18:37:13;;;;;;;19.03;14.40;;;;;;;7.91;100.00;103685.81;5116067;28;20038;-37
2023/02/11 18:39:38;;;;;;;20.35;15.88;;;;;;;7.83;100.00;103686.50;5115705;28;20027;-38
2023/02/11 18:42:04;;;;;;;18.67;14.80;;;;;;;7.82;100.00;103684.81;5115506;28;20459;-37
2023/02/11 18:44:29;;;;;;;16.90;14.03;;;;;;;7.89;100.00;103687.78;5115811;28;20476;-37
2023/02/11 18:46:55;;;;;;;18.83;14.63;;;;;;;7.80;100.00;103672.47;5115484;28;20107;-37
2023/02/11 18:49:20;;;;;;;20.48;14.50;;;;;;;7.74;100.00;103663.97;5115993;28;20033;-37
2023/02/11 18:51:45;;;;;;;17.43;13.37;;;;;;;7.85;100.00;103689.88;5114929;28;20042;-37
2023/02/11 18:54:12;;;;;;;15.00;12.37;;;;;;;7.77;100.00;103681.69;5115884;28;20028;-38
2023/02/11 18:56:37;;;;;;;17.00;13.85;;;;;;;7.81;100.00;103688.50;5114877;28;20458;-38
2023/02/11 18:59:03;;;;;;;20.67;14.38;;;;;;;7.80;100.00;103692.16;5115172;28;20122;-37
2023/02/11 19:01:30;;;;;;;21.07;14.23;;;;;;;7.76;100.00;103682.69;5114881;28;20024;-37
2023/02/11 19:03:57;;;;;;;20.48;14.10;;;;;;;7.79;100.00;103684.25;5115921;28;20279;-37
2023/02/11 19:06:25;;;;;;;17.00;13.07;;;;;;;7.79;100.00;103692.31;5115536;28;20031;-37
2023/02/11 19:08:51;;;;;;;18.20;14.35;;;;;;;7.76;100.00;103696.16;5114880;28;20528;-37
2023/02/11 19:11:18;;;;;;;17.52;13.93;;;;;;;7.71;100.00;103687.63;5114548;28;20032;-37
2023/02/11 19:13:46;;;;;;;17.45;12.93;;;;;;;7.67;100.00;103692.47;5115725;28;20031;-37
2023/02/11 19:16:13;;;;;;;17.83;12.82;;;;;;;7.72;100.00;103689.34;5114564;28;20035;-37
2023/02/11 19:18:39;;;;;;;19.38;12.90;;;;;;;7.72;100.00;103706.38;5114748;28;20031;-37
2023/02/11 19:21:09;;;;;;;16.75;12.38;;;;;;;7.70;100.00;103700.25;5115577;28;20571;-37
2023/02/11 19:23:35;;;;;;;18.77;12.80;;;;;;;7.70;100.00;103702.94;5114827;28;20527;-37
2023/02/11 19:26:03;;;;;;;17.17;12.65;;;;;;;7.70;100.00;103708.34;5114949;28;20019;-37
2023/02/11 19:28:32;;;;;;;20.02;13.93;;;;;;;7.64;100.00;103699.97;5114543;28;20055;-37
2023/02/11 19:31:04;;;;;;;17.80;13.13;;;;;;;7.69;100.00;103709.34;5115080;28;20102;-37
2023/02/11 19:33:29;;;;;;;17.17;12.43;;;;;;;7.70;100.00;103712.88;5114468;28;20028;-37
2023/02/11 19:36:01;;;;;;;17.33;12.53;;;;;;;7.70;100.00;103707.47;5115017;28;20038;-37
2023/02/11 19:38:26;;;;;;;15.48;11.63;;;;;;;7.69;100.00;103713.88;5114639;28;20035;-37
2023/02/11 19:40:56;;;;;;;18.23;12.03;;;;;;;7.68;100.00;103709.47;5114419;28;20379;-37
2023/02/11 19:43:21;;;;;;;18.35;12.30;;;;;;;7.67;100.00;103714.03;5115137;28;20080;-37
2023/02/11 19:45:46;;;;;;;17.47;12.00;;;;;;;7.69;100.00;103730.88;5114681;28;20028;-37
2023/02/11 19:48:12;;;;;;;16.07;12.17;;;;;;;7.65;100.00;103718.69;5114301;27;20031;-37
2023/02/11 19:50:37;;;;;;;18.20;13.87;;;;;;;7.66;100.00;103725.78;5114643;27;20051;-37
2023/02/11 19:53:02;;;;;;;15.13;11.57;;;;;;;7.66;100.00;103724.91;5114115;28;20035;-37
2023/02/11 19:55:28;;;;;;;17.50;12.30;;;;;;;7.64;100.00;103726.91;5115010;28;20015;-37
2023/02/11 19:57:53;;;;;;;15.77;12.13;;;;;;;7.64;100.00;103732.31;5113804;28;20262;-37
2023/02/11 20:00:19;;;;;;;19.40;13.00;;;;;;;7.64;100.00;103735.00;5113864;28;20102;-37
2023/02/11 20:02:45;;;;;;;17.02;12.38;;;;;;;7.64;100.00;103732.31;5113765;28;20110;-37
2023/02/11 20:05:11;;;;;;;14.27;11.88;;;;;;;7.64;100.00;103735.84;5114333;28;20504;-37
2023/02/11 20:07:36;;;;;;;15.33;11.73;;;;;;;7.61;100.00;103736.16;5114022;28;20027;-38
2023/02/11 20:10:02;;;;;;;15.80;12.10;;;;;;;7.62;100.00;103742.38;5114904;28;20261;-37
2023/02/11 20:12:28;;;;;;;15.02;11.30;;;;;;;7.57;100.00;103748.19;5113877;28;20047;-37
2023/02/11 20:14:53;;;;;;;18.60;13.52;;;;;;;7.61;100.00;103748.72;5114635;28;20127;-37
2023/02/11 20:17:18;;;;;;;14.47;11.27;;;;;;;7.60;100.00;103749.72;5113979;28;20019;-37
2023/02/11 20:19:44;;;;;;;19.27;13.13;;;;;;;7.60;100.00;103757.81;5113702;28;20441;-37
2023/02/11 20:22:09;;;;;;;16.57;13.07;;;;;;;7.55;100.00;103754.69;5113871;28;20034;-37
2023/02/11 20:24:34;;;;;;;17.53;12.63;;;;;;;7.58;100.00;103762.50;5114485;28;20042;-37
2023/02/11 20:27:00;;;;;;;14.93;11.57;;;;;;;7.59;100.00;103758.81;5113864;28;20028;-38
2023/02/11 20:29:26;;;;;;;16.27;11.43;;;;;;;7.57;100.00;103761.66;5113899;28;20383;-38
2023/02/11 20:31:52;;;;;;;14.35;10.18;;;;;;;7.56;100.00;103769.84;5113929;28;20078;-37
2023/02/11 20:34:17;;;;;;;14.40;11.00;;;;;;;7.50;100.00;103765.88;5114341;28;20027;-38
2023/02/11 20:36:50;;;;;;;11.27;9.00;;;;;;;7.45;100.00;103757.38;5113464;28;20063;-37
2023/02/11 20:39:17;;;;;;;22.80;18.58;;;;;;;7.56;100.00;103781.47;5114292;28;20473;-37
2023/02/11 20:41:44;;;;;;;20.50;16.95;;;;;;;7.55;100.00;103782.47;5113399;28;20028;-37
2023/02/11 20:44:10;;;;;;;20.05;16.65;;;;;;;7.56;100.00;103778.78;5114304;28;20440;-37
2023/02/11 20:46:39;;;;;;;19.42;14.85;;;;;;;7.54;100.00;103771.84;5113979;28;20024;-37
2023/02/11 20:49:04;;;;;;;16.63;14.10;;;;;;;7.57;100.00;103779.66;5113974;28;20039;-37
2023/02/11 20:51:33;;;;;;;14.95;12.77;;;;;;;7.56;100.00;103783.31;5113268;28;20024;-37
2023/02/11 20:53:59;;;;;;;18.33;14.10;;;;;;;7.53;100.00;103772.84;5113899;28;20043;-37
2023/02/11 20:56:30;;;;;;;15.50;13.05;;;;;;;7.54;100.00;103779.91;5113893;28;20085;-38
2023/02/11 20:58:59;;;;;;;16.65;14.02;;;;;;;7.53;100.00;103791.69;5116037;28;20038;-38
2023/02/11 21:01:28;;;;;;;18.60;13.75;;;;;;;7.51;100.00;103793.66;5117516;28;20062;-38
2023/02/11 21:03:56;;;;;;;14.88;12.50;;;;;;;7.47;100.00;103796.63;5117957;28;20371;-38
2023/02/11 21:06:23;;;;;;;16.38;13.80;;;;;;;7.42;100.00;103784.59;5117924;28;20076;-38
2023/02/11 21:08:49;;;;;;;18.48;13.13;;;;;;;7.50;100.00;103806.25;5116966;28;20024;-38
2023/02/11 21:11:14;;;;;;;14.73;12.52;;;;;;;7.46;100.00;103786.84;5117550;28;20092;-38
2023/02/11 21:13:41;;;;;;;16.10;12.68;;;;;;;7.41;100.00;103789.09;5117620;28;20052;-38
2023/02/11 21:16:09;;;;;;;17.15;13.57;;;;;;;7.48;100.00;103801.03;5117247;27;20064;-38
2023/02/11 21:18:35;;;;;;;15.40;13.13;;;;;;;7.45;100.00;103800.44;5116778;28;20023;-38
2023/02/11 21:21:01;;;;;;;16.73;13.07;;;;;;;7.45;100.00;103801.28;5117885;28;20027;-38
2023/02/11 21:23:27;;;;;;;15.50;12.43;;;;;;;7.43;100.00;103799.75;5117021;28;20155;-38
2023/02/11 21:25:53;;;;;;;18.05;13.38;;;;;;;7.38;100.00;103804.69;5117514;28;20394;-38
2023/02/11 21:28:24;;;;;;;15.60;12.93;;;;;;;7.45;100.00;103812.06;5116939;28;20028;-38
2023/02/11 21:30:50;;;;;;;15.38;13.40;;;;;;;7.36;100.00;103803.97;5117042;27;20038;-38
2023/02/11 21:33:15;;;;;;;16.80;12.93;;;;;;;7.38;100.00;103808.22;5116532;27;20024;-38
2023/02/11 21:35:41;;;;;;;16.77;13.43;;;;;;;7.39;100.00;103823.41;5117113;28;20027;-38
2023/02/11 21:38:06;;;;;;;16.27;12.87;;;;;;;7.35;100.00;103811.19;5116438;28;20123;-38
2023/02/11 21:40:31;;;;;;;16.23;12.97;;;;;;;7.35;100.00;103821.97;5117045;28;20159;-37
2023/02/11 21:42:57;;;;;;;16.93;13.43;;;;;;;7.20;100.00;103797.25;5116327;28;20046;-37
2023/02/11 21:45:24;;;;;;;14.15;12.23;;;;;;;7.25;100.00;103802.25;5116895;28;20019;-38
2023/02/11 21:47:49;;;;;;;15.63;11.55;;;;;;;7.32;100.00;103813.28;5116784;27;20024;-38
2023/02/11 21:50:15;;;;;;;12.05;9.80;;;;;;;7.32;100.00;103819.56;5117338;28;20344;-38
2023/02/11 21:52:40;;;;;;;16.45;12.90;;;;;;;7.33;100.00;103834.72;5116724;28;20030;-38
2023/02/11 21:55:06;;;;;;;14.70;13.10;;;;;;;7.21;100.00;103811.56;5116765;28;20400;-38
2023/02/11 21:57:31;;;;;;;18.55;13.38;;;;;;;7.33;100.00;103834.72;5116968;28;20078;-38
2023/02/11 21:59:56;;;;;;;17.17;13.10;;;;;;;7.21;100.00;103820.50;5116949;27;20051;-38
2023/02/11 22:02:22;;;;;;;16.83;12.80;;;;;;;7.30;100.00;103840.38;5116050;28;20516;-38
2023/02/11 22:04:47;;;;;;;15.53;13.43;;;;;;;7.30;100.00;103834.97;5117067;28;20478;-38
2023/02/11 22:07:12;;;;;;;15.43;12.10;;;;;;;7.25;100.00;103820.22;5115925;27;20072;-38
2023/02/11 22:09:39;;;;;;;13.37;12.07;;;;;;;7.30;100.00;103829.59;5116163;28;20024;-38
2023/02/11 22:12:07;;;;;;;15.50;12.32;;;;;;;7.27;100.00;103837.97;5116006;28;20053;-38
2023/02/11 22:14:35;;;;;;;14.77;11.73;;;;;;;7.26;100.00;103830.00;5116790;28;20048;-38
2023/02/11 22:17:01;;;;;;;16.20;12.00;;;;;;;7.28;100.00;103828.91;5116554;28;20030;-38
2023/02/11 22:19:26;;;;;;;13.32;11.82;;;;;;;7.28;100.00;103831.59;5116301;28;20106;-38
2023/02/11 22:21:52;;;;;;;16.63;12.30;;;;;;;7.28;100.00;103828.91;5116190;28;20092;-38
2023/02/11 22:24:17;;;;;;;17.03;11.77;;;;;;;7.25;100.00;103836.38;5116480;28;20044;-38
2023/02/11 22:26:43;;;;;;;16.53;11.87;;;;;;;7.19;100.00;103829.69;5114616;28;20035;-38